sensor_id;sensor_type;location;lat;lon;timestamp;pressure;altitude;pressure_sealevel;temperature;humidity
49827;BME280;35715;51.570;6.036;2022-08-20T00:00:41;101385.69;;;23.60;76.41
49827;BME280;35715;51.570;6.036;2022-08-20T00:03:19;101391.81;;;23.58;76.41
49827;BME280;35715;51.570;6.036;2022-08-20T00:05:53;101383.84;;;23.54;76.42
49827;BME280;35715;51.570;6.036;2022-08-20T00:08:21;101386.47;;;23.54;76.61
49827;BME280;35715;51.570;6.036;2022-08-20T00:10:47;101383.84;;;23.54;76.09
49827;BME280;35715;51.570;6.036;2022-08-20T00:13:18;101387.25;;;23.50;75.95
49827;BME280;35715;51.570;6.036;2022-08-20T00:15:44;101381.09;;;23.50;75.96
49827;BME280;35715;51.570;6.036;2022-08-20T00:18:14;101381.03;;;23.47;75.58
49827;BME280;35715;51.570;6.036;2022-08-20T00:20:49;101379.66;;;23.26;76.62
49827;BME280;35715;51.570;6.036;2022-08-20T00:23:15;101385.09;;;23.34;75.81
49827;BME280;35715;51.570;6.036;2022-08-20T00:25:41;101380.63;;;23.31;76.27
49827;BME280;35715;51.570;6.036;2022-08-20T00:28:10;101381.50;;;23.30;76.21
49827;BME280;35715;51.570;6.036;2022-08-20T00:30:38;101385.03;;;23.31;76.27
49827;BME280;35715;51.570;6.036;2022-08-20T00:33:09;101385.88;;;23.30;76.09
49827;BME280;35715;51.570;6.036;2022-08-20T00:35:38;101391.09;;;23.28;75.85
49827;BME280;35715;51.570;6.036;2022-08-20T00:38:08;101381.16;;;23.16;75.41
49827;BME280;35715;51.570;6.036;2022-08-20T00:40:41;101384.41;;;23.06;75.73
49827;BME280;35715;51.570;6.036;2022-08-20T00:43:25;101383.28;;;22.98;76.09
49827;BME280;35715;51.570;6.036;2022-08-20T00:45:51;101391.22;;;22.99;75.55
49827;BME280;35715;51.570;6.036;2022-08-20T00:48:24;101386.88;;;23.00;75.65
49827;BME280;35715;51.570;6.036;2022-08-20T00:50:50;101385.97;;;22.99;75.63
49827;BME280;35715;51.570;6.036;2022-08-20T00:53:16;101395.53;;;22.96;75.49
49827;BME280;35715;51.570;6.036;2022-08-20T00:55:44;101389.31;;;22.92;75.88
49827;BME280;35715;51.570;6.036;2022-08-20T00:58:11;101396.09;;;22.84;75.32
49827;BME280;35715;51.570;6.036;2022-08-20T01:00:40;101395.22;;;22.83;75.51
49827;BME280;35715;51.570;6.036;2022-08-20T01:03:09;101396.06;;;22.82;75.67
49827;BME280;35715;51.570;6.036;2022-08-20T01:05:36;101389.00;;;22.81;75.00
49827;BME280;35715;51.570;6.036;2022-08-20T01:08:08;101381.94;;;22.79;75.40
49827;BME280;35715;51.570;6.036;2022-08-20T01:10:38;101387.19;;;22.77;75.47
49827;BME280;35715;51.570;6.036;2022-08-20T01:13:09;101379.25;;;22.76;74.87
49827;BME280;35715;51.570;6.036;2022-08-20T01:15:37;101393.22;;;22.75;75.28
49827;BME280;35715;51.570;6.036;2022-08-20T01:18:10;101390.56;;;22.73;74.90
49827;BME280;35715;51.570;6.036;2022-08-20T01:20:39;101388.72;;;22.71;75.25
49827;BME280;35715;51.570;6.036;2022-08-20T01:26:27;101397.34;;;22.65;75.42
49827;BME280;35715;51.570;6.036;2022-08-20T01:28:54;101400.94;;;22.67;75.21
49827;BME280;35715;51.570;6.036;2022-08-20T01:31:25;101393.03;;;22.67;75.20
49827;BME280;35715;51.570;6.036;2022-08-20T01:33:53;101390.31;;;22.64;75.55
49827;BME280;35715;51.570;6.036;2022-08-20T01:36:25;101390.38;;;22.65;75.31
49827;BME280;35715;51.570;6.036;2022-08-20T01:38:51;101391.25;;;22.66;75.64
49827;BME280;35715;51.570;6.036;2022-08-20T01:44:30;101389.28;;;22.59;75.53
49827;BME280;35715;51.570;6.036;2022-08-20T01:47:17;101387.56;;;22.59;75.59
49827;BME280;35715;51.570;6.036;2022-08-20T01:49:47;101397.22;;;22.60;75.42
49827;BME280;35715;51.570;6.036;2022-08-20T01:52:25;101393.72;;;22.60;75.12
49827;BME280;35715;51.570;6.036;2022-08-20T01:54:52;101395.50;;;22.61;75.20
49827;BME280;35715;51.570;6.036;2022-08-20T01:57:22;101395.53;;;22.62;75.20
49827;BME280;35715;51.570;6.036;2022-08-20T01:59:50;101394.66;;;22.63;75.32
49827;BME280;35715;51.570;6.036;2022-08-20T02:02:15;101397.34;;;22.65;75.67
49827;BME280;35715;51.570;6.036;2022-08-20T02:04:41;101392.91;;;22.62;75.45
49827;BME280;35715;51.570;6.036;2022-08-20T02:07:18;101394.56;;;22.59;75.76
49827;BME280;35715;51.570;6.036;2022-08-20T02:09:45;101396.38;;;22.61;75.92
49827;BME280;35715;51.570;6.036;2022-08-20T02:12:11;101396.44;;;22.63;75.80
49827;BME280;35715;51.570;6.036;2022-08-20T02:14:49;101393.84;;;22.64;75.58
49827;BME280;35715;51.570;6.036;2022-08-20T02:17:21;101402.53;;;22.62;75.80
49827;BME280;35715;51.570;6.036;2022-08-20T02:19:58;101393.63;;;22.57;75.50
49827;BME280;35715;51.570;6.036;2022-08-20T02:25:10;101396.31;;;22.58;75.73
49827;BME280;35715;51.570;6.036;2022-08-20T02:27:47;101397.97;;;22.55;75.33
49827;BME280;35715;51.570;6.036;2022-08-20T02:30:29;101393.47;;;22.50;75.63
49827;BME280;35715;51.570;6.036;2022-08-20T02:32:58;101399.59;;;22.51;76.33
49827;BME280;35715;51.570;6.036;2022-08-20T02:35:24;101402.28;;;22.53;76.51
49827;BME280;35715;51.570;6.036;2022-08-20T02:37:51;101406.69;;;22.54;75.67
49827;BME280;35715;51.570;6.036;2022-08-20T02:40:18;101399.59;;;22.51;75.71
49827;BME280;35715;51.570;6.036;2022-08-20T02:42:43;101400.44;;;22.48;75.73
49827;BME280;35715;51.570;6.036;2022-08-20T02:45:11;101394.22;;;22.46;75.42
49827;BME280;35715;51.570;6.036;2022-08-20T02:47:40;101398.56;;;22.44;75.21
49827;BME280;35715;51.570;6.036;2022-08-20T02:50:09;101403.72;;;22.41;76.29
49827;BME280;35715;51.570;6.036;2022-08-20T02:52:35;101407.16;;;22.39;76.47
49827;BME280;35715;51.570;6.036;2022-08-20T02:55:00;101402.91;;;22.42;76.37
49827;BME280;35715;51.570;6.036;2022-08-20T02:57:27;101401.97;;;22.42;76.36
49827;BME280;35715;51.570;6.036;2022-08-20T02:59:52;101393.16;;;22.40;76.54
49827;BME280;35715;51.570;6.036;2022-08-20T03:02:18;101396.56;;;22.36;76.91
49827;BME280;35715;51.570;6.036;2022-08-20T03:04:45;101393.88;;;22.34;76.08
49827;BME280;35715;51.570;6.036;2022-08-20T03:07:12;101390.31;;;22.32;76.39
49827;BME280;35715;51.570;6.036;2022-08-20T03:09:39;101396.44;;;22.31;76.48
49827;BME280;35715;51.570;6.036;2022-08-20T03:12:06;101395.47;;;22.29;76.56
49827;BME280;35715;51.570;6.036;2022-08-20T03:14:32;101390.16;;;22.27;76.36
49827;BME280;35715;51.570;6.036;2022-08-20T03:17:05;101385.66;;;22.23;75.97
49827;BME280;35715;51.570;6.036;2022-08-20T03:19:31;101386.50;;;22.22;76.16
49827;BME280;35715;51.570;6.036;2022-08-20T03:21:57;101391.63;;;22.18;75.93
49827;BME280;35715;51.570;6.036;2022-08-20T03:24:22;101398.53;;;22.14;76.54
49827;BME280;35715;51.570;6.036;2022-08-20T03:26:48;101393.19;;;22.11;75.28
49827;BME280;35715;51.570;6.036;2022-08-20T03:29:14;101388.47;;;21.99;74.42
49827;BME280;35715;51.570;6.036;2022-08-20T03:31:39;101388.19;;;21.90;75.58
49827;BME280;35715;51.570;6.036;2022-08-20T03:34:05;101382.66;;;21.80;75.93
49827;BME280;35715;51.570;6.036;2022-08-20T03:36:32;101382.56;;;21.77;76.74
49827;BME280;35715;51.570;6.036;2022-08-20T03:39:00;101386.00;;;21.75;77.43
49827;BME280;35715;51.570;6.036;2022-08-20T03:41:26;101374.38;;;21.67;77.33
49827;BME280;35715;51.570;6.036;2022-08-20T03:43:53;101383.13;;;21.67;77.73
49827;BME280;35715;51.570;6.036;2022-08-20T03:46:19;101384.00;;;21.68;77.42
49827;BME280;35715;51.570;6.036;2022-08-20T03:48:44;101387.59;;;21.70;77.74
49827;BME280;35715;51.570;6.036;2022-08-20T03:51:10;101394.63;;;21.71;77.78
49827;BME280;35715;51.570;6.036;2022-08-20T03:53:35;101395.53;;;21.71;78.01
49827;BME280;35715;51.570;6.036;2022-08-20T03:56:03;101391.16;;;21.72;78.29
49827;BME280;35715;51.570;6.036;2022-08-20T03:58:31;101388.56;;;21.73;78.65
49827;BME280;35715;51.570;6.036;2022-08-20T04:00:57;101398.25;;;21.74;78.74
49827;BME280;35715;51.570;6.036;2022-08-20T04:03:23;101395.66;;;21.76;79.09
49827;BME280;35715;51.570;6.036;2022-08-20T04:05:50;101392.22;;;21.78;79.17
49827;BME280;35715;51.570;6.036;2022-08-20T04:08:23;101395.72;;;21.77;79.10
49827;BME280;35715;51.570;6.036;2022-08-20T04:10:51;101400.06;;;21.77;79.14
49827;BME280;35715;51.570;6.036;2022-08-20T04:13:19;101406.22;;;21.77;78.82
49827;BME280;35715;51.570;6.036;2022-08-20T04:15:44;101407.00;;;21.75;78.57
49827;BME280;35715;51.570;6.036;2022-08-20T04:18:14;101408.72;;;21.73;78.92
49827;BME280;35715;51.570;6.036;2022-08-20T04:20:44;101406.91;;;21.72;79.59
49827;BME280;35715;51.570;6.036;2022-08-20T04:23:10;101411.28;;;21.71;79.99
49827;BME280;35715;51.570;6.036;2022-08-20T04:25:37;101412.13;;;21.70;80.25
49827;BME280;35715;51.570;6.036;2022-08-20T04:28:09;101420.00;;;21.70;80.42
49827;BME280;35715;51.570;6.036;2022-08-20T04:30:35;101420.97;;;21.47;81.06
49827;BME280;35715;51.570;6.036;2022-08-20T04:33:00;101420.25;;;21.51;80.68
49827;BME280;35715;51.570;6.036;2022-08-20T04:35:26;101421.09;;;21.50;80.96
49827;BME280;35715;51.570;6.036;2022-08-20T04:38:07;101423.72;;;21.50;81.07
49827;BME280;35715;51.570;6.036;2022-08-20T04:40:34;101427.25;;;21.50;81.26
49827;BME280;35715;51.570;6.036;2022-08-20T04:43:29;101425.31;;;21.46;81.31
49827;BME280;35715;51.570;6.036;2022-08-20T04:45:57;101434.03;;;21.45;81.17
49827;BME280;35715;51.570;6.036;2022-08-20T04:48:44;101434.81;;;21.41;82.04
49827;BME280;35715;51.570;6.036;2022-08-20T04:51:10;101444.38;;;21.40;82.08
49827;BME280;35715;51.570;6.036;2022-08-20T04:53:39;101445.19;;;21.38;82.11
49827;BME280;35715;51.570;6.036;2022-08-20T04:56:05;101441.75;;;21.40;82.85
49827;BME280;35715;51.570;6.036;2022-08-20T04:58:39;101447.06;;;21.42;82.31
49827;BME280;35715;51.570;6.036;2022-08-20T05:01:07;101454.09;;;21.43;82.50
49827;BME280;35715;51.570;6.036;2022-08-20T05:03:34;101452.41;;;21.45;82.64
49827;BME280;35715;51.570;6.036;2022-08-20T05:06:00;101450.66;;;21.44;82.97
49827;BME280;35715;51.570;6.036;2022-08-20T05:08:26;101451.59;;;21.46;82.88
49827;BME280;35715;51.570;6.036;2022-08-20T05:10:53;101456.19;;;21.52;82.87
49827;BME280;35715;51.570;6.036;2022-08-20T05:13:19;101453.56;;;21.52;83.52
49827;BME280;35715;51.570;6.036;2022-08-20T05:15:44;101458.97;;;21.56;83.54
49827;BME280;35715;51.570;6.036;2022-08-20T05:18:18;101468.78;;;21.62;83.03
49827;BME280;35715;51.570;6.036;2022-08-20T05:20:45;101468.97;;;21.68;83.03
49827;BME280;35715;51.570;6.036;2022-08-20T05:23:13;101468.16;;;21.71;82.66
49827;BME280;35715;51.570;6.036;2022-08-20T05:25:41;101470.84;;;21.72;82.82
49827;BME280;35715;51.570;6.036;2022-08-20T05:28:11;101479.56;;;21.71;82.75
49827;BME280;35715;51.570;6.036;2022-08-20T05:30:43;101475.88;;;21.66;83.02
49827;BME280;35715;51.570;6.036;2022-08-20T05:33:10;101476.84;;;21.68;82.84
49827;BME280;35715;51.570;6.036;2022-08-20T05:35:38;101482.94;;;21.67;82.69
49827;BME280;35715;51.570;6.036;2022-08-20T05:38:11;101485.47;;;21.64;82.71
49827;BME280;35715;51.570;6.036;2022-08-20T05:40:38;101482.50;;;21.53;83.14
49827;BME280;35715;51.570;6.036;2022-08-20T05:43:05;101475.50;;;21.54;83.08
49827;BME280;35715;51.570;6.036;2022-08-20T05:45:58;101484.19;;;21.53;83.02
49827;BME280;35715;51.570;6.036;2022-08-20T05:48:26;101471.75;;;21.47;82.88
49827;BME280;35715;51.570;6.036;2022-08-20T05:50:53;101474.19;;;21.41;83.18
49827;BME280;35715;51.570;6.036;2022-08-20T05:53:20;101470.88;;;21.48;83.32
49827;BME280;35715;51.570;6.036;2022-08-20T05:55:46;101482.50;;;21.53;83.10
49827;BME280;35715;51.570;6.036;2022-08-20T05:58:23;101471.41;;;21.62;83.15
49827;BME280;35715;51.570;6.036;2022-08-20T06:00:51;101477.69;;;21.67;83.19
49827;BME280;35715;51.570;6.036;2022-08-20T06:03:16;101482.84;;;21.64;83.15
49827;BME280;35715;51.570;6.036;2022-08-20T06:06:00;101484.53;;;21.62;82.47
49827;BME280;35715;51.570;6.036;2022-08-20T06:08:26;101479.28;;;21.62;82.30
49827;BME280;35715;51.570;6.036;2022-08-20T06:10:51;101486.41;;;21.66;82.12
49827;BME280;35715;51.570;6.036;2022-08-20T06:13:17;101487.50;;;21.73;81.93
49827;BME280;35715;51.570;6.036;2022-08-20T06:15:43;101483.09;;;21.72;81.67
49827;BME280;35715;51.570;6.036;2022-08-20T06:18:12;101480.56;;;21.75;81.59
49827;BME280;35715;51.570;6.036;2022-08-20T06:20:39;101491.25;;;21.81;81.61
49827;BME280;35715;51.570;6.036;2022-08-20T06:23:05;101483.47;;;21.84;81.13
49827;BME280;35715;51.570;6.036;2022-08-20T06:25:31;101489.59;;;21.85;80.68
49827;BME280;35715;51.570;6.036;2022-08-20T06:28:01;101493.84;;;21.79;79.94
49827;BME280;35715;51.570;6.036;2022-08-20T06:30:27;101494.38;;;21.69;80.33
49827;BME280;35715;51.570;6.036;2022-08-20T06:32:52;101495.25;;;21.68;80.64
49827;BME280;35715;51.570;6.036;2022-08-20T06:35:18;101497.00;;;21.69;80.56
49827;BME280;35715;51.570;6.036;2022-08-20T06:37:43;101496.16;;;21.70;80.70
49827;BME280;35715;51.570;6.036;2022-08-20T06:40:13;101497.19;;;21.75;80.37
49827;BME280;35715;51.570;6.036;2022-08-20T06:42:39;101499.09;;;21.79;79.99
49827;BME280;35715;51.570;6.036;2022-08-20T06:45:11;101497.19;;;21.75;80.48
49827;BME280;35715;51.570;6.036;2022-08-20T06:47:42;101503.25;;;21.73;80.36
49827;BME280;35715;51.570;6.036;2022-08-20T06:50:12;101500.69;;;21.74;80.35
49827;BME280;35715;51.570;6.036;2022-08-20T06:52:39;101503.38;;;21.76;80.08
49827;BME280;35715;51.570;6.036;2022-08-20T06:55:06;101497.03;;;21.71;79.78
49827;BME280;35715;51.570;6.036;2022-08-20T06:57:35;101503.22;;;21.71;79.87
49827;BME280;35715;51.570;6.036;2022-08-20T07:00:02;101499.56;;;21.68;80.49
49827;BME280;35715;51.570;6.036;2022-08-20T07:02:28;101499.69;;;21.71;80.71
49827;BME280;35715;51.570;6.036;2022-08-20T07:04:53;101504.94;;;21.71;80.35
49827;BME280;35715;51.570;6.036;2022-08-20T07:07:21;101507.66;;;21.74;80.16
49827;BME280;35715;51.570;6.036;2022-08-20T07:09:48;101507.66;;;21.74;79.95
49827;BME280;35715;51.570;6.036;2022-08-20T07:12:13;101512.81;;;21.71;79.66
49827;BME280;35715;51.570;6.036;2022-08-20T07:14:39;101510.34;;;21.75;79.37
49827;BME280;35715;51.570;6.036;2022-08-20T07:17:05;101515.78;;;21.82;79.01
49827;BME280;35715;51.570;6.036;2022-08-20T07:19:31;101510.53;;;21.82;79.07
49827;BME280;35715;51.570;6.036;2022-08-20T07:21:57;101507.94;;;22.10;78.42
49827;BME280;35715;51.570;6.036;2022-08-20T07:24:22;101507.47;;;22.24;77.63
49827;BME280;35715;51.570;6.036;2022-08-20T07:26:50;101508.25;;;22.48;77.33
49827;BME280;35715;51.570;6.036;2022-08-20T07:29:17;101510.06;;;22.51;76.73
49827;BME280;35715;51.570;6.036;2022-08-20T07:31:43;101510.53;;;22.66;76.39
49827;BME280;35715;51.570;6.036;2022-08-20T07:34:27;101512.06;;;22.60;75.67
49827;BME280;35715;51.570;6.036;2022-08-20T07:37:01;101512.16;;;22.63;75.67
49827;BME280;35715;51.570;6.036;2022-08-20T07:39:27;101521.06;;;22.66;76.02
49827;BME280;35715;51.570;6.036;2022-08-20T07:41:52;101518.34;;;22.65;75.78
49827;BME280;35715;51.570;6.036;2022-08-20T07:44:28;101523.59;;;22.65;75.48
49827;BME280;35715;51.570;6.036;2022-08-20T07:46:56;101522.84;;;22.69;75.45
49827;BME280;35715;51.570;6.036;2022-08-20T07:49:22;101522.84;;;22.69;75.16
49827;BME280;35715;51.570;6.036;2022-08-20T07:51:47;101526.09;;;22.60;74.80
49827;BME280;35715;51.570;6.036;2022-08-20T07:54:12;101532.25;;;22.59;74.55
49827;BME280;35715;51.570;6.036;2022-08-20T07:56:38;101539.13;;;22.56;74.62
49827;BME280;35715;51.570;6.036;2022-08-20T07:59:03;101543.56;;;22.57;74.65
49827;BME280;35715;51.570;6.036;2022-08-20T08:01:30;101537.38;;;22.55;75.13
49827;BME280;35715;51.570;6.036;2022-08-20T08:03:57;101546.13;;;22.55;74.85
49827;BME280;35715;51.570;6.036;2022-08-20T08:06:30;101541.75;;;22.56;74.45
49827;BME280;35715;51.570;6.036;2022-08-20T08:08:59;101544.13;;;22.46;74.99
49827;BME280;35715;51.570;6.036;2022-08-20T08:11:26;101553.97;;;22.54;74.52
49827;BME280;35715;51.570;6.036;2022-08-20T08:13:51;101552.13;;;22.51;74.21
49827;BME280;35715;51.570;6.036;2022-08-20T08:16:17;101543.28;;;22.47;74.64
49827;BME280;35715;51.570;6.036;2022-08-20T08:18:46;101545.59;;;22.37;74.96
49827;BME280;35715;51.570;6.036;2022-08-20T08:21:14;101543.44;;;22.25;75.56
49827;BME280;35715;51.570;6.036;2022-08-20T08:23:40;101549.28;;;22.16;75.84
49827;BME280;35715;51.570;6.036;2022-08-20T08:26:14;101554.44;;;22.13;75.83
49827;BME280;35715;51.570;6.036;2022-08-20T08:28:40;101555.28;;;22.12;76.14
49827;BME280;35715;51.570;6.036;2022-08-20T08:31:07;101562.38;;;22.14;75.83
49827;BME280;35715;51.570;6.036;2022-08-20T08:33:33;101565.09;;;22.18;76.09
49827;BME280;35715;51.570;6.036;2022-08-20T08:36:14;101565.34;;;22.25;75.86
49827;BME280;35715;51.570;6.036;2022-08-20T08:38:42;101562.06;;;22.31;75.80
49827;BME280;35715;51.570;6.036;2022-08-20T08:41:31;101567.22;;;22.29;75.53
49827;BME280;35715;51.570;6.036;2022-08-20T08:44:04;101560.56;;;22.39;75.20
49827;BME280;35715;51.570;6.036;2022-08-20T08:46:37;101559.94;;;22.48;74.90
49827;BME280;35715;51.570;6.036;2022-08-20T08:49:05;101566.53;;;22.62;75.01
49827;BME280;35715;51.570;6.036;2022-08-20T08:51:41;101565.34;;;22.83;73.90
49827;BME280;35715;51.570;6.036;2022-08-20T08:54:07;101563.75;;;22.88;73.16
49827;BME280;35715;51.570;6.036;2022-08-20T08:56:41;101557.00;;;22.98;72.61
49827;BME280;35715;51.570;6.036;2022-08-20T08:59:08;101564.81;;;22.95;72.52
49827;BME280;35715;51.570;6.036;2022-08-20T09:01:38;101564.78;;;22.93;72.64
49827;BME280;35715;51.570;6.036;2022-08-20T09:04:06;101570.06;;;22.95;72.78
49827;BME280;35715;51.570;6.036;2022-08-20T09:06:34;101574.53;;;23.28;72.13
49827;BME280;35715;51.570;6.036;2022-08-20T09:09:03;101584.50;;;23.39;71.57
49827;BME280;35715;51.570;6.036;2022-08-20T09:11:30;101585.91;;;23.60;70.44
49827;BME280;35715;51.570;6.036;2022-08-20T09:13:55;101585.50;;;24.13;69.43
49827;BME280;35715;51.570;6.036;2022-08-20T09:16:23;101571.28;;;25.77;64.54
49827;BME280;35715;51.570;6.036;2022-08-20T09:18:49;101576.19;;;27.44;59.07
49827;BME280;35715;51.570;6.036;2022-08-20T09:21:15;101577.19;;;28.86;54.69
49827;BME280;35715;51.570;6.036;2022-08-20T09:23:41;101572.88;;;29.22;53.18
49827;BME280;35715;51.570;6.036;2022-08-20T09:26:06;101575.59;;;29.71;51.15
49827;BME280;35715;51.570;6.036;2022-08-20T09:28:32;101579.75;;;31.04;47.72
49827;BME280;35715;51.570;6.036;2022-08-20T09:30:58;101574.63;;;31.98;45.58
49827;BME280;35715;51.570;6.036;2022-08-20T09:33:24;101566.16;;;32.40;44.31
49827;BME280;35715;51.570;6.036;2022-08-20T09:35:49;101571.63;;;31.25;45.50
49827;BME280;35715;51.570;6.036;2022-08-20T09:38:15;101566.69;;;30.30;46.46
49827;BME280;35715;51.570;6.036;2022-08-20T09:40:41;101562.66;;;31.37;44.80
49827;BME280;35715;51.570;6.036;2022-08-20T09:43:07;101560.34;;;30.71;45.39
49827;BME280;35715;51.570;6.036;2022-08-20T09:45:33;101566.75;;;29.96;46.68
49827;BME280;35715;51.570;6.036;2022-08-20T09:48:00;101568.41;;;29.15;48.28
49827;BME280;35715;51.570;6.036;2022-08-20T09:50:28;101569.34;;;29.34;47.51
49827;BME280;35715;51.570;6.036;2022-08-20T09:52:56;101560.50;;;29.77;47.27
49827;BME280;35715;51.570;6.036;2022-08-20T09:55:39;101558.75;;;29.97;46.63
49827;BME280;35715;51.570;6.036;2022-08-20T10:00:48;101556.97;;;30.16;45.37
49827;BME280;35715;51.570;6.036;2022-08-20T10:03:15;101556.88;;;29.03;45.27
49827;BME280;35715;51.570;6.036;2022-08-20T10:05:40;101559.16;;;28.25;47.56
49827;BME280;35715;51.570;6.036;2022-08-20T10:08:09;101564.50;;;28.34;46.61
49827;BME280;35715;51.570;6.036;2022-08-20T10:10:34;101560.06;;;28.28;46.20
49827;BME280;35715;51.570;6.036;2022-08-20T10:13:00;101563.16;;;29.41;44.65
49827;BME280;35715;51.570;6.036;2022-08-20T10:15:27;101562.19;;;30.55;43.22
49827;BME280;35715;51.570;6.036;2022-08-20T10:17:54;101568.19;;;31.08;41.78
49827;BME280;35715;51.570;6.036;2022-08-20T10:20:22;101572.94;;;30.18;42.29
49827;BME280;35715;51.570;6.036;2022-08-20T10:22:47;101567.63;;;29.54;43.10
49827;BME280;35715;51.570;6.036;2022-08-20T10:25:13;101574.66;;;29.23;43.31
49827;BME280;35715;51.570;6.036;2022-08-20T10:27:43;101569.41;;;29.89;42.77
49827;BME280;35715;51.570;6.036;2022-08-20T10:30:10;101563.72;;;31.11;39.78
49827;BME280;35715;51.570;6.036;2022-08-20T10:32:35;101561.19;;;32.06;38.90
49827;BME280;35715;51.570;6.036;2022-08-20T10:35:01;101571.38;;;31.62;38.53
49827;BME280;35715;51.570;6.036;2022-08-20T10:37:31;101572.94;;;30.18;39.41
49827;BME280;35715;51.570;6.036;2022-08-20T10:39:58;101564.03;;;29.46;40.85
49827;BME280;35715;51.570;6.036;2022-08-20T10:42:24;101566.66;;;30.51;40.00
49827;BME280;35715;51.570;6.036;2022-08-20T10:44:49;101565.19;;;31.60;38.73
49827;BME280;35715;51.570;6.036;2022-08-20T10:47:24;101575.63;;;31.83;36.02
49827;BME280;35715;51.570;6.036;2022-08-20T10:49:52;101571.81;;;32.15;37.07
49827;BME280;35715;51.570;6.036;2022-08-20T10:52:20;101567.19;;;32.31;37.47
49827;BME280;35715;51.570;6.036;2022-08-20T10:54:46;101576.25;;;32.15;35.97
49827;BME280;35715;51.570;6.036;2022-08-20T10:57:27;101573.53;;;31.02;36.72
49827;BME280;35715;51.570;6.036;2022-08-20T10:59:55;101574.69;;;30.33;38.17
49827;BME280;35715;51.570;6.036;2022-08-20T11:02:21;101580.06;;;29.94;38.31
49827;BME280;35715;51.570;6.036;2022-08-20T11:04:48;101586.22;;;29.45;39.91
49827;BME280;35715;51.570;6.036;2022-08-20T11:07:24;101575.44;;;28.99;40.48
49827;BME280;35715;51.570;6.036;2022-08-20T11:09:51;101579.91;;;29.00;40.05
49827;BME280;35715;51.570;6.036;2022-08-20T11:12:18;101576.38;;;29.09;39.35
49827;BME280;35715;51.570;6.036;2022-08-20T11:14:45;101582.59;;;29.17;38.71
49827;BME280;35715;51.570;6.036;2022-08-20T11:17:28;101589.53;;;28.75;38.63
49827;BME280;35715;51.570;6.036;2022-08-20T11:19:55;101582.16;;;28.26;40.21
49827;BME280;35715;51.570;6.036;2022-08-20T11:22:20;101593.38;;;27.89;41.01
49827;BME280;35715;51.570;6.036;2022-08-20T11:24:46;101606.34;;;27.57;40.99
49827;BME280;35715;51.570;6.036;2022-08-20T11:27:20;101601.81;;;27.42;41.12
49827;BME280;35715;51.570;6.036;2022-08-20T11:29:47;101598.09;;;27.31;40.77
49827;BME280;35715;51.570;6.036;2022-08-20T11:32:12;101592.69;;;27.20;41.25
49827;BME280;35715;51.570;6.036;2022-08-20T11:34:38;101587.31;;;27.12;41.44
49827;BME280;35715;51.570;6.036;2022-08-20T11:37:04;101591.22;;;27.45;40.39
49827;BME280;35715;51.570;6.036;2022-08-20T11:39:29;101595.94;;;27.78;39.94
49827;BME280;35715;51.570;6.036;2022-08-20T11:41:55;101594.47;;;28.16;39.61
49827;BME280;35715;51.570;6.036;2022-08-20T11:44:21;101597.19;;;28.21;39.69
49827;BME280;35715;51.570;6.036;2022-08-20T11:46:46;101594.38;;;28.02;39.88
49827;BME280;35715;51.570;6.036;2022-08-20T11:49:11;101598.69;;;27.91;39.53
49827;BME280;35715;51.570;6.036;2022-08-20T11:51:37;101590.66;;;27.78;39.34
49827;BME280;35715;51.570;6.036;2022-08-20T11:54:03;101593.09;;;27.57;39.02
49827;BME280;35715;51.570;6.036;2022-08-20T11:56:32;101586.78;;;27.42;39.12
49827;BME280;35715;51.570;6.036;2022-08-20T11:58:57;101595.66;;;27.48;38.97
49827;BME280;35715;51.570;6.036;2022-08-20T12:01:23;101593.03;;;27.51;38.51
49827;BME280;35715;51.570;6.036;2022-08-20T12:03:48;101590.19;;;27.32;38.83
49827;BME280;35715;51.570;6.036;2022-08-20T12:06:24;101580.63;;;27.45;38.79
49827;BME280;35715;51.570;6.036;2022-08-20T12:08:50;101584.41;;;27.76;38.45
49827;BME280;35715;51.570;6.036;2022-08-20T12:11:16;101586.31;;;27.90;37.52
49827;BME280;35715;51.570;6.036;2022-08-20T12:13:41;101584.75;;;28.13;36.70
49827;BME280;35715;51.570;6.036;2022-08-20T12:16:06;101582.25;;;28.43;36.17
49827;BME280;35715;51.570;6.036;2022-08-20T12:18:32;101582.31;;;28.50;35.38
49827;BME280;35715;51.570;6.036;2022-08-20T12:20:57;101579.69;;;28.57;35.77
49827;BME280;35715;51.570;6.036;2022-08-20T12:23:23;101572.72;;;28.73;35.83
49827;BME280;35715;51.570;6.036;2022-08-20T12:25:49;101572.75;;;28.83;35.42
49827;BME280;35715;51.570;6.036;2022-08-20T12:28:17;101584.19;;;28.67;35.33
49827;BME280;35715;51.570;6.036;2022-08-20T12:30:43;101580.66;;;28.70;34.78
49827;BME280;35715;51.570;6.036;2022-08-20T12:33:08;101582.41;;;28.69;34.62
49827;BME280;35715;51.570;6.036;2022-08-20T12:35:35;101578.88;;;28.65;34.68
49827;BME280;35715;51.570;6.036;2022-08-20T12:38:04;101573.59;;;28.76;34.60
49827;BME280;35715;51.570;6.036;2022-08-20T12:40:31;101573.59;;;28.76;34.22
49827;BME280;35715;51.570;6.036;2022-08-20T12:42:57;101567.41;;;28.74;33.92
49827;BME280;35715;51.570;6.036;2022-08-20T12:45:22;101576.19;;;28.62;34.39
49827;BME280;35715;51.570;6.036;2022-08-20T12:47:48;101583.22;;;28.54;34.41
49827;BME280;35715;51.570;6.036;2022-08-20T12:50:17;101576.94;;;28.38;34.32
49827;BME280;35715;51.570;6.036;2022-08-20T12:52:43;101579.88;;;28.97;33.31
49827;BME280;35715;51.570;6.036;2022-08-20T12:55:12;101570.28;;;29.64;32.26
49827;BME280;35715;51.570;6.036;2022-08-20T12:57:41;101583.59;;;30.04;31.56
49827;BME280;35715;51.570;6.036;2022-08-20T13:00:15;101574.72;;;29.93;30.81
49827;BME280;35715;51.570;6.036;2022-08-20T13:02:41;101564.00;;;30.37;31.24
49827;BME280;35715;51.570;6.036;2022-08-20T13:05:08;101569.22;;;30.74;29.92
49827;BME280;35715;51.570;6.036;2022-08-20T13:07:36;101568.34;;;30.71;30.90